Time;durP1;ratioP1;P1;durP2;ratioP2;P2;SDS_P1;SDS_P2;PMS_P1;PMS_P2;Temp;Humidity;BMP_temperature;BMP_pressure;BME280_temperature;BME280_humidity;BME280_pressure;Samples;Min_cycle;Max_cycle;Signal;HPM_P1;HPM_P2
2023/03/10 00:02:15;;;;;;;8.20;2.40;;;;;;;4.93;100.00;94500.13;10329711;28;20304;-66
2023/03/10 00:07:16;;;;;;;6.67;2.03;;;;;;;4.77;100.00;94497.66;10329181;28;20269;-66
2023/03/10 00:12:16;;;;;;;16.50;2.17;;;;;;;4.81;100.00;94494.53;10329136;28;20685;-65
2023/03/10 00:17:16;;;;;;;10.57;2.17;;;;;;;4.77;100.00;94485.50;10329298;28;20217;-65
2023/03/10 00:22:17;;;;;;;10.53;2.73;;;;;;;4.61;100.00;94496.03;10328948;28;20218;-65
2023/03/10 00:27:17;;;;;;;12.37;3.03;;;;;;;4.57;100.00;94484.38;10329630;28;20265;-64
2023/03/10 00:32:18;;;;;;;11.43;2.33;;;;;;;4.27;100.00;94477.31;10329387;28;20221;-65
2023/03/10 00:37:18;;;;;;;14.83;2.27;;;;;;;4.35;100.00;94476.44;10329365;28;20297;-65
2023/03/10 00:42:19;;;;;;;10.43;1.97;;;;;;;4.60;100.00;94466.69;10326920;28;20214;-65
2023/03/10 00:47:19;;;;;;;8.37;2.40;;;;;;;4.80;100.00;94446.22;10328422;28;20605;-66
2023/03/10 00:52:20;;;;;;;10.33;2.37;;;;;;;4.80;100.00;94438.44;10326507;28;20238;-66
2023/03/10 00:57:20;;;;;;;7.13;2.07;;;;;;;4.69;100.00;94422.53;10327314;28;20213;-66
2023/03/10 01:02:20;;;;;;;9.77;2.23;;;;;;;4.43;100.00;94413.38;10327423;28;20210;-66
2023/03/10 01:07:21;;;;;;;7.90;2.20;;;;;;;4.43;100.00;94418.53;10361884;28;20216;-66
2023/03/10 01:12:21;;;;;;;9.50;2.00;;;;;;;4.44;100.00;94409.78;10367515;28;20217;-67
2023/03/10 01:17:21;;;;;;;6.57;1.80;;;;;;;4.42;100.00;94399.56;10367576;28;20225;-67
2023/03/10 01:22:22;;;;;;;8.47;2.50;;;;;;;4.63;100.00;94398.09;10349545;28;20243;-66
2023/03/10 01:27:22;;;;;;;3.83;1.73;;;;;;;4.69;100.00;94375.84;10367714;28;20185;-66
2023/03/10 01:32:23;;;;;;;4.30;2.13;;;;;;;4.83;100.00;94357.69;10349905;28;20220;-66
2023/03/10 01:37:23;;;;;;;10.00;2.20;;;;;;;4.62;100.00;94345.44;10332341;28;20225;-67
2023/03/10 01:42:23;;;;;;;2.93;1.83;;;;;;;4.72;100.00;94334.00;10307498;28;20317;-67
2023/03/10 01:47:24;;;;;;;13.27;2.67;;;;;;;4.72;100.00;94323.63;10308949;28;20202;-67
2023/03/10 01:57:31;;;;;;;6.10;1.87;;;;;;;5.21;100.00;94322.19;10303631;28;20236;-63
2023/03/10 02:02:32;;;;;;;6.20;2.10;;;;;;;5.39;100.00;94299.25;10301770;28;20198;-64
2023/03/10 02:07:34;;;;;;;5.53;2.67;;;;;;;5.49;100.00;94291.16;10305782;28;20272;-65
2023/03/10 02:12:35;;;;;;;5.90;2.10;;;;;;;5.63;100.00;94287.69;10308383;28;20194;-63
2023/03/10 02:17:35;;;;;;;8.57;2.00;;;;;;;5.82;100.00;94273.28;10324724;28;20221;-64
2023/03/10 02:22:37;;;;;;;8.00;2.13;;;;;;;6.04;100.00;94240.28;10325877;28;20193;-64
2023/03/10 02:27:39;;;;;;;6.33;1.93;;;;;;;6.05;100.00;94244.50;10325810;28;20186;-62
2023/03/10 02:32:42;;;;;;;5.73;2.00;;;;;;;6.15;100.00;94241.56;10328838;28;20273;-64
2023/03/10 02:37:43;;;;;;;7.13;1.97;;;;;;;6.02;100.00;94242.28;10315833;28;20696;-63
2023/03/10 02:42:43;;;;;;;3.67;1.73;;;;;;;6.00;100.00;94236.47;10333286;28;20206;-63
2023/03/10 02:47:44;;;;;;;6.90;1.73;;;;;;;5.91;100.00;94234.97;10315649;28;20272;-63
2023/03/10 02:52:54;;;;;;;10.47;2.20;;;;;;;5.90;100.00;94222.97;10315373;28;20216;-63
2023/03/10 02:57:55;;;;;;;8.73;1.70;;;;;;;5.90;100.00;94217.78;10314708;28;20304;-63
2023/03/10 03:02:56;;;;;;;4.30;1.80;;;;;;;5.97;100.00;94213.47;10332341;28;20643;-62
2023/03/10 03:07:56;;;;;;;4.87;1.93;;;;;;;5.99;100.00;94195.09;10332194;28;20529;-62
2023/03/10 03:12:57;;;;;;;3.47;1.40;;;;;;;6.04;100.00;94188.31;10314786;28;20214;-62
2023/03/10 03:17:59;;;;;;;6.33;1.60;;;;;;;6.06;100.00;94181.16;10331837;28;20639;-62
2023/03/10 03:23:00;;;;;;;6.03;1.50;;;;;;;6.04;100.00;94172.72;10314207;28;20210;-62
2023/03/10 03:28:01;;;;;;;7.23;1.90;;;;;;;6.23;100.00;94165.22;10331901;28;20190;-62
2023/03/10 03:33:04;;;;;;;3.50;1.70;;;;;;;6.37;100.00;94151.28;10331085;28;20271;-62
2023/03/10 03:38:04;;;;;;;3.63;1.80;;;;;;;6.40;100.00;94130.09;10336561;28;20222;-63
2023/03/10 03:43:05;;;;;;;2.30;1.27;;;;;;;6.45;100.00;94106.13;10330873;28;20205;-63
2023/03/10 03:48:06;;;;;;;3.97;1.40;;;;;;;6.41;100.00;94105.69;10313432;28;20197;-63
2023/03/10 03:53:09;;;;;;;4.53;1.60;;;;;;;6.43;100.00;94100.28;10313041;28;20237;-63
2023/03/10 03:58:09;;;;;;;11.27;1.63;;;;;;;6.50;100.00;94077.72;10329943;28;20236;-63
2023/03/10 04:03:10;;;;;;;5.63;1.60;;;;;;;6.66;100.00;94086.97;10312633;28;20305;-63
2023/03/10 04:08:11;;;;;;;3.60;1.20;;;;;;;7.16;100.00;94078.00;10312310;28;20210;-63
2023/03/10 04:13:12;;;;;;;3.73;1.20;;;;;;;7.10;100.00;94069.19;10312611;28;20244;-63
2023/03/10 04:18:12;;;;;;;4.73;1.10;;;;;;;7.17;100.00;94064.78;10311976;28;20312;-63
2023/03/10 04:23:14;;;;;;;3.23;1.00;;;;;;;7.08;100.00;94072.00;10311557;28;20241;-64
2023/03/10 04:28:15;;;;;;;0.90;0.73;;;;;;;7.20;100.00;94047.94;10311350;28;21047;-66
2023/03/10 04:33:16;;;;;;;1.67;1.00;;;;;;;6.89;100.00;94042.38;10328433;28;20269;-64
2023/03/10 04:38:18;;;;;;;7.20;1.30;;;;;;;6.69;100.00;94044.13;10328230;28;20221;-63
2023/03/10 04:43:20;;;;;;;5.53;1.27;;;;;;;6.46;100.00;94060.09;10311127;28;20213;-64
2023/03/10 04:48:22;;;;;;;3.00;1.30;;;;;;;6.62;100.00;94058.94;10328237;28;20568;-63
2023/03/10 04:53:23;;;;;;;4.57;1.13;;;;;;;6.72;100.00;94051.53;10327931;28;20279;-64
2023/03/10 04:58:24;;;;;;;4.33;1.30;;;;;;;6.65;100.00;94054.13;10309705;28;20309;-63
2023/03/10 05:03:24;;;;;;;1.47;0.97;;;;;;;6.79;100.00;94045.34;10310214;28;20206;-63
2023/03/10 05:08:25;;;;;;;2.30;1.20;;;;;;;6.72;100.00;94035.94;10310289;28;20209;-64
2023/03/10 05:13:25;;;;;;;2.23;1.07;;;;;;;6.94;100.00;94024.34;10327790;28;20216;-64
2023/03/10 05:18:26;;;;;;;7.87;3.53;;;;;;;6.96;100.00;94018.94;10302676;28;20314;-64
2023/03/10 05:23:26;;;;;;;2.87;1.53;;;;;;;6.95;100.00;94017.31;10275447;28;20214;-64
2023/03/10 05:28:27;;;;;;;2.40;1.27;;;;;;;6.89;100.00;94005.09;10284208;28;20186;-64
2023/03/10 05:33:27;;;;;;;7.23;2.97;;;;;;;6.87;100.00;94007.91;10266626;28;20706;-64
2023/03/10 05:38:28;;;;;;;26.03;9.67;;;;;;;6.74;100.00;94010.53;10286803;28;20229;-64
2023/03/10 05:43:28;;;;;;;8.97;2.83;;;;;;;6.85;100.00;94019.53;10269463;28;20214;-65
2023/03/10 05:48:29;;;;;;;68.30;18.27;;;;;;;6.91;100.00;94031.75;10286548;28;20594;-64
2023/03/10 05:53:31;;;;;;;16.07;6.87;;;;;;;6.92;100.00;94022.94;10268283;28;20657;-64
2023/03/10 05:58:32;;;;;;;5.77;2.13;;;;;;;6.92;100.00;94028.94;10268564;28;20602;-64
2023/03/10 06:03:33;;;;;;;3.53;1.30;;;;;;;6.96;100.00;94035.34;10268925;28;20221;-64
2023/03/10 06:08:34;;;;;;;1.97;1.30;;;;;;;7.11;100.00;94029.16;10292524;28;20233;-63
2023/03/10 06:13:34;;;;;;;1.90;1.20;;;;;;;7.13;100.00;94038.34;10294310;28;20763;-63
2023/03/10 06:18:35;;;;;;;2.40;1.43;;;;;;;7.04;100.00;94052.56;10293925;28;20229;-64
2023/03/10 06:23:35;;;;;;;3.20;1.23;;;;;;;7.06;100.00;94055.78;10293981;28;20206;-63
2023/03/10 06:28:38;;;;;;;0.97;0.90;;;;;;;7.07;100.00;94054.75;10293490;28;20198;-63
2023/03/10 06:33:38;;;;;;;0.90;0.80;;;;;;;7.17;100.00;94040.53;10309475;28;20594;-63
2023/03/10 06:38:39;;;;;;;5.03;1.40;;;;;;;7.11;100.00;94042.94;10331836;28;20208;-63
2023/03/10 06:43:40;;;;;;;1.90;1.10;;;;;;;7.08;100.00;94052.97;10333070;28;20218;-63
2023/03/10 06:48:41;;;;;;;1.67;0.97;;;;;;;7.10;100.00;94045.75;10332978;28;20190;-64
2023/03/10 06:53:41;;;;;;;0.73;0.73;;;;;;;7.07;100.00;94033.13;10332139;28;20246;-63
2023/03/10 06:58:42;;;;;;;1.23;0.90;;;;;;;7.05;100.00;94033.34;10332602;28;20225;-63
2023/03/10 07:03:42;;;;;;;1.33;0.90;;;;;;;7.02;100.00;94048.56;10332268;28;20225;-63
2023/03/10 07:08:43;;;;;;;2.43;1.10;;;;;;;6.96;100.00;94050.16;10332632;28;20540;-63
2023/03/10 07:13:43;;;;;;;2.03;1.10;;;;;;;7.00;100.00;94053.97;10332190;28;20589;-63
2023/03/10 07:18:44;;;;;;;3.20;0.90;;;;;;;6.96;100.00;94068.38;10332134;28;20288;-63
2023/03/10 07:23:44;;;;;;;2.70;0.90;;;;;;;7.03;100.00;94069.19;10332702;28;20210;-63
2023/03/10 07:28:45;;;;;;;1.00;0.80;;;;;;;7.23;100.00;94077.00;10332011;28;20680;-64
2023/03/10 07:33:45;;;;;;;0.67;0.67;;;;;;;7.36;100.00;94068.38;10332090;28;20886;-64
2023/03/10 07:38:46;;;;;;;2.40;0.97;;;;;;;7.35;100.00;94073.78;10331630;28;20715;-63
2023/03/10 07:43:47;;;;;;;0.80;0.80;;;;;;;7.41;100.00;94067.75;10331768;28;20225;-64
2023/03/10 07:48:47;;;;;;;0.87;0.87;;;;;;;7.45;100.00;94055.94;10313597;28;20194;-64
2023/03/10 07:53:47;;;;;;;0.70;0.70;;;;;;;7.82;100.00;94056.25;10312649;28;20221;-62
2023/03/10 07:58:48;;;;;;;3.57;0.90;;;;;;;8.21;100.00;94054.53;10321207;23;20240;-65
2023/03/10 08:03:48;;;;;;;3.23;0.83;;;;;;;8.65;100.00;94044.28;10337196;28;20200;-66
2023/03/10 08:08:49;;;;;;;1.43;0.90;;;;;;;8.52;100.00;94064.22;10331957;28;20301;-66
2023/03/10 08:13:50;;;;;;;1.00;0.73;;;;;;;9.00;100.00;94028.97;10330694;28;21125;-67
2023/03/10 08:18:52;;;;;;;1.07;0.70;;;;;;;9.31;100.00;94035.16;10331072;28;20303;-68
2023/03/10 08:23:52;;;;;;;3.50;2.57;;;;;;;9.60;98.51;94020.63;10330937;28;20194;-68
2023/03/10 08:28:52;;;;;;;1.80;0.87;;;;;;;9.65;96.48;93999.03;10329714;28;20210;-69
2023/03/10 08:33:56;;;;;;;0.70;0.70;;;;;;;9.74;98.00;94030.91;10330816;28;20220;-68
2023/03/10 08:38:59;;;;;;;0.93;0.70;;;;;;;9.94;94.21;94001.94;10329430;28;20611;-68
2023/03/10 08:44:00;;;;;;;1.48;0.80;;;;;;;10.57;90.22;93994.72;10328615;28;20221;-70
2023/03/10 08:49:00;;;;;;;1.33;1.00;;;;;;;9.71;91.21;93997.34;10329685;28;20213;-66
2023/03/10 08:54:02;;;;;;;1.23;0.90;;;;;;;10.37;91.22;94006.25;10329593;28;20577;-67
2023/03/10 08:59:02;;;;;;;0.93;0.60;;;;;;;10.48;87.64;93973.28;10329006;28;20229;-68
2023/03/10 09:04:04;;;;;;;1.30;0.70;;;;;;;10.61;88.96;94007.16;10329299;28;20204;-65
2023/03/10 09:09:05;;;;;;;1.33;0.80;;;;;;;11.43;85.02;93982.84;10328746;28;20213;-66
2023/03/10 09:14:07;;;;;;;1.83;1.00;;;;;;;10.46;85.84;93994.47;10329036;28;20192;-67
2023/03/10 09:19:07;;;;;;;2.92;1.10;;;;;;;10.75;85.56;94023.47;10354854;28;20232;-67
2023/03/10 09:24:08;;;;;;;0.85;0.63;;;;;;;10.44;86.26;94029.72;10369172;28;20193;-67
2023/03/10 09:29:09;;;;;;;5.28;1.20;;;;;;;10.62;84.62;94018.41;10368472;28;20201;-66
2023/03/10 09:34:10;;;;;;;1.52;0.80;;;;;;;10.29;85.35;94030.06;10369135;28;20221;-63
2023/03/10 09:39:11;;;;;;;0.93;0.70;;;;;;;9.69;85.60;94021.09;10365821;28;20642;-66
2023/03/10 09:44:50;;;;;;;1.57;1.00;;;;;;;9.42;86.98;94044.91;10368594;28;20200;-67
2023/03/10 09:50:15;;;;;;;1.93;1.00;;;;;;;9.86;87.66;94052.69;10351037;28;20233;-66
2023/03/10 09:55:41;;;;;;;2.63;0.93;;;;;;;9.33;88.86;94025.28;10351423;28;20672;-66
2023/03/10 10:00:43;;;;;;;3.57;1.00;;;;;;;9.43;87.90;94030.81;10367322;28;20237;-66
2023/03/10 10:05:44;;;;;;;0.65;0.65;;;;;;;10.07;85.98;94009.63;10368289;28;20252;-66
2023/03/10 10:10:48;;;;;;;0.60;0.60;;;;;;;9.97;86.66;93999.69;10350475;28;20212;-66
2023/03/10 10:16:10;;;;;;;2.77;0.90;;;;;;;9.89;87.93;94030.56;10350502;28;20201;-62
2023/03/10 10:21:21;;;;;;;2.40;0.80;;;;;;;11.43;83.13;93977.59;10366552;28;20225;-67
2023/03/10 10:26:26;;;;;;;1.05;0.63;;;;;;;11.05;83.43;93981.47;10321637;28;20229;-62
2023/03/10 10:31:29;;;;;;;1.95;0.73;;;;;;;10.85;84.46;94001.94;10324406;28;20241;-62
2023/03/10 10:36:38;;;;;;;3.28;0.80;;;;;;;10.09;83.52;93994.50;10324087;28;20253;-62
2023/03/10 10:41:39;;;;;;;0.50;0.50;;;;;;;9.99;85.38;94015.16;10338590;28;20259;-61
2023/03/10 10:46:52;;;;;;;1.95;1.13;;;;;;;10.41;83.16;93986.47;10323810;28;20204;-65
2023/03/10 10:51:57;;;;;;;0.73;0.60;;;;;;;10.66;81.53;93996.78;10323261;28;20301;-63
2023/03/10 10:56:59;;;;;;;1.02;0.70;;;;;;;10.91;79.03;93980.09;10330067;28;20226;-63
2023/03/10 11:02:21;;;;;;;1.50;0.70;;;;;;;11.20;78.69;93962.69;10328407;28;20303;-63
2023/03/10 11:07:26;;;;;;;1.55;0.70;;;;;;;11.04;78.01;93934.53;10330501;28;20186;-64
2023/03/10 11:12:31;;;;;;;1.73;0.90;;;;;;;11.14;79.73;93974.06;10330753;28;20622;-61
2023/03/10 11:17:49;;;;;;;1.83;0.93;;;;;;;11.15;77.43;93933.75;10331004;28;20214;-63
2023/03/10 11:23:11;;;;;;;4.07;1.08;;;;;;;11.91;75.68;93920.63;10330296;28;20209;-63
2023/03/10 11:28:42;;;;;;;3.22;0.85;;;;;;;11.67;75.73;93919.88;10330019;28;20225;-61
2023/03/10 11:33:50;;;;;;;2.47;1.20;;;;;;;11.36;74.76;93898.31;10332318;28;20284;-65
2023/03/10 11:38:56;;;;;;;2.20;0.90;;;;;;;11.71;73.30;93870.38;10332130;28;20606;-64
2023/03/10 11:44:17;;;;;;;2.47;1.00;;;;;;;11.59;71.88;93850.25;10330929;28;20571;-65
2023/03/10 11:49:23;;;;;;;2.80;1.10;;;;;;;11.68;71.47;93868.22;10313117;28;20738;-63
2023/03/10 11:54:29;;;;;;;1.65;0.77;;;;;;;11.63;71.95;93853.19;10330921;28;20727;-63
2023/03/10 11:59:33;;;;;;;2.80;1.00;;;;;;;11.76;70.11;93829.31;10310474;28;20673;-64
2023/03/10 12:04:58;;;;;;;1.98;0.90;;;;;;;11.50;70.84;93819.38;10312009;28;20210;-63
2023/03/10 12:10:01;;;;;;;1.90;1.00;;;;;;;11.05;71.35;93819.03;10328862;28;20221;-63
2023/03/10 12:15:09;;;;;;;1.80;0.80;;;;;;;11.47;71.47;93830.34;10337718;28;20298;-62
2023/03/10 12:20:10;;;;;;;3.03;1.10;;;;;;;11.12;72.81;93849.56;10361236;28;20943;-62
2023/03/10 12:25:29;;;;;;;0.90;0.70;;;;;;;11.28;71.07;93814.78;10328504;28;20240;-63
2023/03/10 12:30:49;;;;;;;3.55;1.15;;;;;;;11.19;71.30;93822.22;10343862;28;20587;-62
2023/03/10 12:35:52;;;;;;;4.78;1.17;;;;;;;11.46;70.54;93811.19;10367949;28;20196;-62
2023/03/10 12:40:53;;;;;;;2.58;0.85;;;;;;;11.88;67.49;93758.44;10366242;28;20221;-63
2023/03/10 12:45:57;;;;;;;4.93;1.33;;;;;;;12.62;67.71;93783.72;10367282;28;20212;-62
2023/03/10 12:51:01;;;;;;;4.05;1.05;;;;;;;12.93;64.51;93725.53;10367426;28;20239;-64
2023/03/10 12:56:31;;;;;;;4.70;1.20;;;;;;;12.95;65.81;93747.09;10349638;28;20205;-62
2023/03/10 13:01:36;;;;;;;3.58;1.00;;;;;;;11.42;66.75;93732.25;10357113;28;20245;-62
2023/03/10 13:06:39;;;;;;;3.58;1.10;;;;;;;11.39;69.84;93781.69;10326626;28;20225;-60
2023/03/10 13:12:06;;;;;;;2.15;1.10;;;;;;;11.41;69.11;93759.47;10326295;28;20221;-61
2023/03/10 13:17:17;;;;;;;3.40;1.70;;;;;;;12.11;67.31;93736.53;10308116;28;20221;-60
2023/03/10 13:22:18;;;;;;;5.38;1.48;;;;;;;12.51;65.45;93702.41;10308344;28;20227;-62
2023/03/10 13:27:19;;;;;;;3.25;1.00;;;;;;;12.20;65.18;93692.28;10308540;28;20191;-60
2023/03/10 13:32:19;;;;;;;3.40;1.10;;;;;;;12.43;64.87;93686.03;10324840;28;20220;-62
2023/03/10 13:37:19;;;;;;;2.17;0.90;;;;;;;11.99;66.86;93700.91;10324027;28;20645;-61
2023/03/10 13:42:23;;;;;;;3.00;1.10;;;;;;;11.62;67.75;93723.09;10324935;28;20729;-59
2023/03/10 13:47:25;;;;;;;3.65;1.05;;;;;;;11.52;68.71;93736.84;10336524;28;20190;-61
2023/03/10 13:52:27;;;;;;;1.92;0.88;;;;;;;11.05;69.25;93727.34;10358426;28;21005;-63
2023/03/10 13:57:31;;;;;;;2.75;1.25;;;;;;;11.07;70.13;93755.94;10338459;28;20437;-63
2023/03/10 14:02:34;;;;;;;120.88;60.33;;;;;;;10.87;71.60;93775.47;10308925;22;20266;-63
2023/03/10 14:07:36;;;;;;;6.95;4.82;;;;;;;10.42;73.37;93814.56;10308304;28;20221;-64
2023/03/10 14:12:45;;;;;;;3.30;1.50;;;;;;;8.46;87.68;93993.84;10323561;28;20217;-64
2023/03/10 14:17:47;;;;;;;1.10;1.00;;;;;;;6.24;97.98;94068.84;10324191;28;20224;-61
2023/03/10 14:22:48;;;;;;;3.50;2.77;;;;;;;5.17;100.00;94039.69;10324557;28;20695;-61
2023/03/10 14:27:58;;;;;;;4.77;2.63;;;;;;;5.29;100.00;94027.00;10325996;28;20190;-61
2023/03/10 14:32:59;;;;;;;4.20;2.17;;;;;;;5.39;100.00;94037.06;10332450;28;20218;-63
2023/03/10 14:37:59;;;;;;;7.83;5.20;;;;;;;5.47;100.00;94026.50;10338312;28;20213;-62
2023/03/10 14:43:00;;;;;;;0.77;0.77;;;;;;;5.54;100.00;94003.16;10318073;28;20296;-61
2023/03/10 14:48:20;;;;;;;24.30;10.10;;;;;;;6.11;100.00;94000.41;10304982;28;20190;-58
2023/03/10 14:53:23;;;;;;;19.80;6.37;;;;;;;7.42;100.00;93986.03;10309259;28;20714;-56
2023/03/10 14:58:27;;;;;;;10.30;5.37;;;;;;;8.19;100.00;93971.28;10309619;28;20281;-57
2023/03/10 15:03:27;;;;;;;0.80;0.80;;;;;;;8.98;100.00;93960.50;10321994;28;20344;-54
2023/03/10 15:08:28;;;;;;;1.63;1.23;;;;;;;9.46;100.00;93928.50;10309210;28;20657;-57
2023/03/10 15:13:28;;;;;;;2.80;1.50;;;;;;;9.44;100.00;93898.34;10310430;28;21054;-59
2023/03/10 15:18:28;;;;;;;1.43;1.33;;;;;;;9.69;95.67;93869.50;10309007;28;20596;-56
2023/03/10 15:23:29;;;;;;;2.40;1.07;;;;;;;9.53;95.57;93883.19;10349352;28;20221;-57
2023/03/10 15:28:29;;;;;;;1.40;1.30;;;;;;;10.17;93.30;93881.72;10330337;28;20243;-55
2023/03/10 15:33:30;;;;;;;1.83;1.17;;;;;;;10.10;89.78;93852.22;10330188;28;20217;-54
2023/03/10 15:38:30;;;;;;;3.37;1.50;;;;;;;9.24;92.81;93888.94;10328830;28;20231;-58
2023/03/10 15:43:31;;;;;;;1.63;0.97;;;;;;;7.93;98.05;93896.63;10343181;28;20295;-55
2023/03/10 15:48:32;;;;;;;2.70;1.47;;;;;;;7.63;100.00;93919.84;10365879;28;20186;-55
2023/03/10 15:53:33;;;;;;;3.90;1.33;;;;;;;7.19;100.00;93924.78;10320748;28;20298;-61
2023/03/10 15:58:33;;;;;;;6.23;1.90;;;;;;;7.28;100.00;93920.16;10301712;28;20210;-61
2023/03/10 16:03:35;;;;;;;7.67;2.70;;;;;;;7.30;100.00;93920.75;10304945;28;20610;-60
2023/03/10 16:08:38;;;;;;;0.70;0.70;;;;;;;7.17;100.00;93915.56;10306840;28;20746;-59
2023/03/10 16:13:39;;;;;;;1.80;1.00;;;;;;;7.10;100.00;93923.41;10309084;28;20700;-61
2023/03/10 16:18:39;;;;;;;2.30;0.57;;;;;;;7.24;100.00;93918.97;10305895;28;20268;-62
2023/03/10 16:23:40;;;;;;;3.93;1.83;;;;;;;7.17;100.00;93928.59;10305635;28;20215;-62
2023/03/10 16:28:46;;;;;;;3.47;1.50;;;;;;;7.17;100.00;93925.97;10319962;28;20189;-62
2023/03/10 16:33:47;;;;;;;1.00;0.90;;;;;;;7.17;100.00;93923.38;10327301;28;20201;-61
2023/03/10 16:38:48;;;;;;;1.47;1.00;;;;;;;7.22;100.00;93918.38;10327123;28;20229;-61
2023/03/10 16:43:50;;;;;;;2.60;1.03;;;;;;;7.07;100.00;93913.41;10325931;28;20686;-63
2023/03/10 16:48:53;;;;;;;7.40;2.27;;;;;;;6.93;100.00;93905.63;10307848;28;20277;-63
2023/03/10 16:53:56;;;;;;;1.77;1.10;;;;;;;6.86;100.00;93917.84;10305164;28;20255;-64
2023/03/10 16:58:57;;;;;;;1.27;1.03;;;;;;;6.68;100.00;93913.28;10366988;28;20727;-63
2023/03/10 17:03:58;;;;;;;2.10;1.00;;;;;;;6.65;100.00;93900.66;10367860;28;20237;-61
2023/03/10 17:08:59;;;;;;;0.60;0.60;;;;;;;6.44;100.00;93906.88;10368924;28;20189;-63
2023/03/10 17:14:02;;;;;;;0.90;0.80;;;;;;;6.43;100.00;93915.66;10367838;28;20311;-63
2023/03/10 17:19:05;;;;;;;0.83;0.83;;;;;;;6.50;100.00;93915.69;10364665;28;20703;-63
2023/03/10 17:24:06;;;;;;;1.00;0.90;;;;;;;6.25;100.00;93924.06;10366647;28;20216;-63
2023/03/10 17:29:07;;;;;;;1.13;0.90;;;;;;;6.20;100.00;93926.44;10367675;28;20192;-61
2023/03/10 17:34:11;;;;;;;0.80;0.80;;;;;;;6.17;100.00;93932.88;10367861;28;20212;-62
2023/03/10 17:39:16;;;;;;;0.83;0.73;;;;;;;6.08;100.00;93939.25;10367426;28;20257;-63
2023/03/10 17:44:17;;;;;;;0.87;0.77;;;;;;;5.90;100.00;93939.78;10367475;28;20256;-63
2023/03/10 17:49:17;;;;;;;0.97;0.63;;;;;;;5.98;100.00;93929.22;10367427;28;20193;-63
2023/03/10 17:54:19;;;;;;;2.00;0.80;;;;;;;5.92;100.00;93924.00;10367248;28;20710;-62
2023/03/10 17:59:20;;;;;;;0.80;0.80;;;;;;;5.85;100.00;93919.56;10366812;28;20660;-62
2023/03/10 18:04:20;;;;;;;2.13;1.60;;;;;;;5.85;100.00;93916.16;10373073;28;20240;-63
2023/03/10 18:09:20;;;;;;;2.70;2.00;;;;;;;5.82;100.00;93906.97;10375347;28;20255;-61
2023/03/10 18:14:21;;;;;;;1.27;1.10;;;;;;;5.74;100.00;93908.94;10374667;28;20213;-59
2023/03/10 18:19:21;;;;;;;2.67;2.10;;;;;;;5.77;100.00;93895.56;10374854;28;20307;-62
2023/03/10 18:24:21;;;;;;;2.23;1.87;;;;;;;5.75;100.00;93897.56;10374799;28;20283;-62
2023/03/10 18:29:22;;;;;;;1.40;1.30;;;;;;;5.58;100.00;93897.13;10374563;28;20193;-59
2023/03/10 18:34:22;;;;;;;1.27;1.17;;;;;;;5.52;100.00;93889.09;10374187;28;20300;-62
2023/03/10 18:39:23;;;;;;;0.90;0.90;;;;;;;5.59;100.00;93896.94;10373837;28;20260;-62
2023/03/10 18:44:23;;;;;;;1.03;1.03;;;;;;;5.67;100.00;93891.56;10373760;28;20208;-61
2023/03/10 18:49:23;;;;;;;1.10;1.10;;;;;;;5.69;100.00;93892.16;10373430;28;20186;-62
2023/03/10 18:54:24;;;;;;;2.93;2.13;;;;;;;5.69;100.00;93886.94;10372943;28;20213;-60
2023/03/10 18:59:25;;;;;;;0.90;0.70;;;;;;;5.93;100.00;93890.00;10372934;28;20231;-59
2023/03/10 19:04:25;;;;;;;1.93;1.00;;;;;;;6.02;100.00;93868.06;10372238;28;20808;-61
2023/03/10 19:09:26;;;;;;;0.87;0.80;;;;;;;6.17;100.00;93869.66;10372540;28;20189;-61
2023/03/10 19:14:26;;;;;;;0.80;0.80;;;;;;;6.28;100.00;93869.09;10371204;28;20213;-62
2023/03/10 19:19:27;;;;;;;1.87;1.10;;;;;;;6.16;100.00;93876.66;10371963;28;20225;-61
2023/03/10 19:24:28;;;;;;;1.17;1.07;;;;;;;5.82;100.00;93887.97;10372244;28;20304;-60
2023/03/10 19:29:29;;;;;;;1.83;0.70;;;;;;;5.54;100.00;93881.13;10371836;28;20186;-60
2023/03/10 19:34:29;;;;;;;1.13;0.97;;;;;;;5.41;100.00;93873.31;10372232;28;20214;-59
2023/03/10 19:39:30;;;;;;;2.33;1.17;;;;;;;5.39;100.00;93873.50;10370769;28;20316;-60
2023/03/10 19:44:30;;;;;;;1.83;1.20;;;;;;;5.40;100.00;93869.09;10371741;28;20703;-62
2023/03/10 19:49:33;;;;;;;0.83;0.80;;;;;;;5.40;100.00;93874.28;10371748;28;20663;-61
2023/03/10 19:54:33;;;;;;;0.60;0.60;;;;;;;5.41;100.00;93870.72;10371029;28;20221;-62
2023/03/10 19:59:33;;;;;;;0.70;0.70;;;;;;;5.38;100.00;93866.72;10371364;28;20234;-61
2023/03/10 20:04:34;;;;;;;0.70;0.70;;;;;;;5.25;100.00;93870.03;10417100;23;20251;-64
2023/03/10 20:09:34;;;;;;;0.70;0.70;;;;;;;5.20;100.00;93864.63;10414610;28;20211;-63
2023/03/10 20:14:35;;;;;;;0.60;0.60;;;;;;;5.18;100.00;93887.41;10388331;28;20221;-64
2023/03/10 20:19:35;;;;;;;0.63;0.63;;;;;;;5.10;100.00;93877.97;10372980;28;20228;-63
2023/03/10 20:24:35;;;;;;;0.77;0.70;;;;;;;5.05;100.00;93889.91;10373454;28;20695;-64
2023/03/10 20:29:36;;;;;;;0.77;0.77;;;;;;;4.89;100.00;93876.28;10372838;28;20630;-61
2023/03/10 20:34:39;;;;;;;0.77;0.77;;;;;;;4.78;100.00;93897.56;10373064;28;20773;-58
2023/03/10 20:39:40;;;;;;;0.57;0.57;;;;;;;4.68;100.00;93892.69;10372659;28;20221;-62
2023/03/10 20:44:40;;;;;;;0.60;0.60;;;;;;;4.68;100.00;93897.88;10372205;28;20228;-61
2023/03/10 20:49:40;;;;;;;0.50;0.50;;;;;;;4.58;100.00;93893.06;10372566;28;20189;-61
2023/03/10 20:54:41;;;;;;;0.73;0.67;;;;;;;4.53;100.00;93887.63;10371709;28;20213;-61
2023/03/10 20:59:41;;;;;;;0.93;0.63;;;;;;;4.33;100.00;93891.88;10372061;28;20224;-58
2023/03/10 21:04:42;;;;;;;0.70;0.70;;;;;;;4.15;100.00;93895.72;10371468;28;20251;-56
2023/03/10 21:09:43;;;;;;;0.90;0.90;;;;;;;4.03;100.00;93904.97;10371559;28;20192;-56
2023/03/10 21:14:44;;;;;;;0.80;0.80;;;;;;;3.90;100.00;93897.88;10370972;28;20205;-54
2023/03/10 21:19:44;;;;;;;1.17;0.80;;;;;;;3.76;100.00;93881.41;10370835;28;20229;-61
2023/03/10 21:24:45;;;;;;;0.83;0.83;;;;;;;3.79;100.00;93893.19;10371122;28;20220;-60
2023/03/10 21:29:45;;;;;;;0.70;0.70;;;;;;;3.72;100.00;93899.13;10357999;28;20669;-62
2023/03/10 21:34:45;;;;;;;0.80;0.80;;;;;;;3.68;100.00;93889.31;10335523;28;20234;-61
2023/03/10 21:39:46;;;;;;;0.90;0.90;;;;;;;3.58;100.00;93881.81;10329263;28;20226;-61
2023/03/10 21:44:47;;;;;;;0.80;0.80;;;;;;;3.51;100.00;93897.28;10329577;28;20248;-60
2023/03/10 21:49:48;;;;;;;2.03;1.00;;;;;;;3.50;100.00;93892.31;10329492;28;20205;-62
2023/03/10 21:54:48;;;;;;;0.90;0.90;;;;;;;3.38;100.00;93897.13;10329394;28;20295;-62
2023/03/10 21:59:49;;;;;;;0.93;0.90;;;;;;;3.25;100.00;93892.63;10329262;28;20217;-59
2023/03/10 22:04:50;;;;;;;0.90;0.90;;;;;;;3.13;100.00;93897.47;10328807;28;20602;-61
2023/03/10 22:09:50;;;;;;;0.93;0.93;;;;;;;2.98;100.00;93896.66;10328947;28;20627;-57
2023/03/10 22:14:55;;;;;;;2.30;1.10;;;;;;;2.91;100.00;93893.19;10328783;28;20224;-59
2023/03/10 22:19:55;;;;;;;1.60;1.10;;;;;;;2.93;100.00;93893.81;10328791;28;20665;-60
2023/03/10 22:24:55;;;;;;;0.90;0.90;;;;;;;3.04;100.00;93901.13;10328962;28;20279;-58
2023/03/10 22:29:56;;;;;;;1.00;1.00;;;;;;;3.06;100.00;93909.50;10328853;28;20197;-58
2023/03/10 22:34:56;;;;;;;0.93;0.90;;;;;;;3.13;100.00;93905.22;10328786;28;20233;-60
2023/03/10 22:39:56;;;;;;;0.90;0.90;;;;;;;3.00;100.00;93917.97;10328722;28;20217;-59
2023/03/10 22:44:57;;;;;;;1.73;1.40;;;;;;;2.93;100.00;93901.59;10328764;28;20240;-60
2023/03/10 22:49:57;;;;;;;1.00;1.00;;;;;;;2.77;100.00;93903.38;10332045;28;20201;-58
2023/03/10 22:54:58;;;;;;;0.70;0.70;;;;;;;2.65;100.00;93895.25;10336354;28;20209;-56
2023/03/10 22:59:58;;;;;;;1.07;0.90;;;;;;;2.53;100.00;93888.91;10335583;28;20226;-59
2023/03/10 23:04:59;;;;;;;1.07;1.00;;;;;;;2.45;100.00;93892.38;10346359;28;20710;-56
2023/03/10 23:09:59;;;;;;;1.00;1.00;;;;;;;2.36;100.00;93897.78;10335812;28;20569;-59
2023/03/10 23:14:59;;;;;;;0.93;0.93;;;;;;;2.25;100.00;93905.00;10334953;28;20633;-56
2023/03/10 23:20:00;;;;;;;1.27;1.00;;;;;;;2.16;100.00;93902.63;10335660;28;20230;-59
2023/03/10 23:25:00;;;;;;;1.43;1.33;;;;;;;1.90;100.00;93903.81;10334472;28;20242;-56
2023/03/10 23:30:00;;;;;;;1.00;1.00;;;;;;;1.90;100.00;93932.19;10334773;28;20194;-59